createdAt,value
2018-06-23T00:02:16.127Z,4.63
2018-06-23T00:07:19.625Z,4.53
2018-06-23T00:12:23.382Z,4.30
2018-06-23T00:17:27.285Z,4.50
2018-06-23T00:22:31.131Z,4.70
2018-06-23T00:27:34.781Z,4.30
2018-06-23T00:32:38.783Z,4.10
2018-06-23T00:37:42.496Z,5.10
2018-06-23T00:42:46.440Z,4.10
2018-06-23T00:47:50.138Z,4.93
2018-06-23T00:52:53.871Z,4.17
2018-06-23T00:57:57.621Z,5.00
2018-06-23T01:03:01.419Z,4.60
2018-06-23T01:08:04.634Z,4.77
2018-06-23T01:13:07.803Z,5.50
2018-06-23T01:18:10.944Z,4.67
2018-06-23T01:23:14.779Z,6.20
2018-06-23T01:28:17.828Z,6.17
2018-06-23T01:33:21.065Z,7.53
2018-06-23T01:38:24.244Z,6.80
2018-06-23T01:43:27.355Z,6.87
2018-06-23T01:48:30.371Z,8.30
2018-06-23T01:53:33.467Z,7.60
2018-06-23T01:58:36.684Z,8.43
2018-06-23T02:03:39.678Z,9.53
2018-06-23T02:08:42.918Z,9.53
2018-06-23T02:13:45.998Z,9.33
2018-06-23T02:18:54.803Z,9.77
2018-06-23T02:24:03.669Z,11.73
2018-06-23T02:29:13.168Z,10.17
2018-06-23T02:34:22.267Z,10.60
2018-06-23T02:39:26.736Z,10.27
2018-06-23T02:44:29.723Z,9.40
2018-06-23T02:49:32.759Z,9.70
2018-06-23T02:54:35.743Z,10.27
2018-06-23T02:59:38.808Z,10.27
2018-06-23T03:04:41.756Z,8.93
2018-06-23T03:09:44.891Z,9.37
2018-06-23T03:14:48.076Z,8.87
2018-06-23T03:19:51.900Z,8.90
2018-06-23T03:24:54.860Z,9.73
2018-06-23T03:29:57.840Z,9.00
2018-06-23T03:35:00.855Z,8.97
2018-06-23T03:40:03.884Z,9.10
2018-06-23T03:45:06.955Z,9.30
2018-06-23T03:50:09.941Z,10.80
2018-06-23T03:55:13.096Z,10.77
2018-06-23T04:00:16.057Z,11.10
2018-06-23T04:05:19.207Z,10.17
2018-06-23T04:10:22.425Z,10.63
2018-06-23T04:15:25.435Z,10.00
2018-06-23T04:20:29.418Z,9.53
2018-06-23T04:25:32.402Z,10.30
2018-06-23T04:30:35.374Z,12.97
2018-06-23T04:35:38.361Z,12.47
2018-06-23T04:40:41.344Z,10.17
2018-06-23T04:45:44.343Z,11.07
2018-06-23T04:50:48.280Z,10.67
2018-06-23T04:55:51.790Z,11.43
2018-06-23T05:00:55.529Z,10.90
2018-06-23T05:05:58.533Z,11.20
2018-06-23T05:11:01.579Z,13.37
2018-06-23T05:16:06.020Z,12.63
2018-06-23T05:21:08.949Z,14.00
2018-06-23T05:26:11.953Z,14.60
2018-06-23T05:31:14.972Z,14.20
2018-06-23T05:36:17.989Z,14.27
2018-06-23T05:41:22.453Z,14.40
2018-06-23T05:46:25.468Z,14.17
2018-06-23T05:51:28.813Z,12.97
2018-06-23T05:56:31.808Z,12.97
2018-06-23T06:01:35.055Z,13.53
2018-06-23T06:06:38.044Z,12.90
2018-06-23T06:11:41.110Z,16.33
2018-06-23T06:17:33.100Z,14.70
2018-06-23T06:22:37.443Z,13.63
2018-06-23T06:27:40.638Z,14.80
2018-06-23T06:32:43.705Z,14.43
2018-06-23T06:37:46.748Z,15.10
2018-06-23T06:42:49.914Z,14.60
2018-06-23T06:47:52.972Z,12.60
2018-06-23T06:52:55.946Z,12.33
2018-06-23T06:57:59.205Z,12.87
2018-06-23T07:03:02.261Z,13.87
2018-06-23T07:08:05.322Z,11.77
2018-06-23T07:13:08.510Z,11.87
2018-06-23T07:18:11.541Z,10.07
2018-06-23T07:23:14.551Z,11.03
2018-06-23T07:28:17.567Z,10.70
2018-06-23T07:33:20.580Z,10.33
2018-06-23T07:38:23.545Z,9.57
2018-06-23T07:43:26.843Z,9.30
2018-06-23T07:48:30.123Z,8.37
2018-06-23T07:53:33.313Z,8.60
2018-06-23T07:58:36.391Z,7.80
2018-06-23T08:03:39.407Z,7.43
2018-06-23T08:08:42.518Z,8.23
2018-06-23T08:13:45.583Z,7.00
2018-06-23T08:18:48.613Z,7.03
2018-06-23T08:23:51.674Z,6.57
2018-06-23T08:28:54.895Z,7.97
2018-06-23T08:33:57.956Z,6.70
2018-06-23T08:39:00.949Z,6.23
2018-06-23T08:44:04.333Z,6.73
2018-06-23T08:49:07.553Z,7.53
2018-06-23T08:54:10.726Z,6.60
2018-06-23T08:59:13.794Z,4.73
2018-06-23T09:04:16.832Z,4.73
2018-06-23T09:09:20.261Z,3.97
2018-06-23T09:14:23.321Z,5.70
2018-06-23T09:19:26.572Z,5.33
2018-06-23T09:24:29.662Z,5.33
2018-06-23T09:29:32.676Z,5.70
2018-06-23T09:34:35.944Z,6.90
2018-06-23T09:39:39.011Z,6.13
2018-06-23T09:44:42.027Z,6.40
2018-06-23T09:49:45.341Z,5.03
2018-06-23T09:54:48.392Z,5.30
2018-06-23T09:59:51.400Z,5.60
2018-06-23T10:04:54.463Z,5.70
2018-06-23T10:09:57.637Z,6.00
2018-06-23T10:15:00.629Z,4.67
2018-06-23T10:20:04.061Z,4.83
2018-06-23T10:25:07.263Z,5.03
2018-06-23T10:30:10.468Z,5.20
2018-06-23T10:35:13.497Z,5.73
2018-06-23T10:40:16.668Z,5.20
2018-06-23T10:45:19.866Z,6.00
2018-06-23T10:50:22.904Z,5.43
2018-06-23T10:55:25.949Z,5.30
2018-06-23T11:00:29.209Z,6.37
2018-06-23T11:05:32.241Z,5.00
2018-06-23T11:10:35.418Z,4.83
2018-06-23T11:15:38.823Z,5.60
2018-06-23T11:20:41.857Z,5.27
2018-06-23T11:25:44.928Z,5.20
2018-06-23T11:30:48.159Z,5.90
2018-06-23T11:35:51.360Z,5.10
2018-06-23T11:40:54.585Z,6.27
2018-06-23T11:45:57.618Z,5.13
2018-06-23T11:51:00.625Z,5.20
2018-06-23T11:56:03.799Z,5.20
2018-06-23T12:01:06.809Z,4.97
2018-06-23T12:06:09.856Z,4.10
2018-06-23T12:11:12.874Z,4.30
2018-06-23T12:16:16.073Z,4.57
2018-06-23T12:21:19.273Z,3.73
2018-06-23T12:26:22.439Z,3.63
2018-06-23T12:31:25.646Z,3.70
2018-06-23T12:36:29.621Z,4.87
2018-06-23T12:41:32.813Z,4.90
2018-06-23T12:46:36.398Z,4.90
2018-06-23T12:51:39.546Z,5.17
2018-06-23T12:56:42.554Z,5.87
2018-06-23T13:01:45.608Z,5.00
2018-06-23T13:06:48.678Z,6.33
2018-06-23T13:11:51.855Z,5.37
2018-06-23T13:16:55.231Z,6.77
2018-06-23T13:21:58.350Z,6.90
2018-06-23T13:27:01.426Z,6.60
2018-06-23T13:32:04.605Z,6.17
2018-06-23T13:37:07.638Z,6.00
2018-06-23T13:42:10.677Z,5.60
2018-06-23T13:47:13.790Z,6.00
2018-06-23T13:52:16.912Z,6.50
2018-06-23T13:57:20.240Z,6.20
2018-06-23T14:02:23.511Z,5.50
2018-06-23T14:07:26.572Z,7.20
2018-06-23T14:12:29.908Z,7.33
2018-06-23T14:17:32.891Z,7.33
2018-06-23T14:22:35.907Z,8.47
2018-06-23T14:27:38.906Z,8.20
2018-06-23T14:32:41.974Z,7.57
2018-06-23T14:37:45.026Z,7.40
2018-06-23T14:42:48.078Z,7.63
2018-06-23T14:47:51.147Z,7.50
2018-06-23T14:52:54.450Z,7.23
2018-06-23T14:57:57.552Z,23.00
2018-06-23T15:03:00.657Z,16.50
2018-06-23T15:08:20.905Z,13.57
2018-06-23T15:13:23.911Z,7.67
2018-06-23T15:18:26.911Z,15.87
2018-06-23T15:23:30.079Z,11.33
2018-06-23T15:28:33.078Z,9.30
2018-06-23T15:33:36.136Z,7.77
2018-06-23T15:38:39.304Z,9.33
2018-06-23T15:43:42.332Z,8.50
2018-06-23T15:48:45.667Z,7.57
2018-06-23T15:53:48.731Z,7.53
2018-06-23T15:58:51.926Z,7.10
2018-06-23T16:03:55.256Z,6.97
2018-06-23T16:08:58.548Z,7.43
2018-06-23T16:14:01.574Z,8.50
2018-06-23T16:19:05.040Z,7.00
2018-06-23T16:24:08.176Z,6.33
2018-06-23T16:29:11.240Z,6.50
2018-06-23T16:34:14.297Z,6.70
2018-06-23T16:39:17.315Z,5.77
2018-06-23T16:44:20.366Z,5.10
2018-06-23T16:49:23.574Z,6.43
2018-06-23T16:54:27.179Z,6.70
2018-06-23T16:59:30.471Z,6.40
2018-06-23T17:04:33.540Z,5.70
2018-06-23T17:09:36.812Z,5.33
2018-06-23T17:14:40.079Z,5.97
2018-06-23T17:19:43.430Z,5.57
2018-06-23T17:24:46.656Z,5.70
2018-06-23T17:29:49.792Z,7.30
2018-06-23T17:34:53.424Z,6.47
2018-06-23T17:39:56.718Z,6.10
2018-06-23T17:45:00.015Z,6.17
2018-06-23T17:50:03.264Z,5.80
2018-06-23T17:55:06.744Z,5.33
2018-06-23T18:00:09.828Z,6.37
2018-06-23T18:05:12.868Z,14.53
2018-06-23T18:10:16.166Z,8.83
2018-06-23T18:15:19.205Z,7.47
2018-06-23T18:20:22.493Z,6.17
2018-06-23T18:25:25.682Z,7.60
2018-06-23T18:30:28.812Z,7.73
2018-06-23T18:35:32.599Z,6.93
2018-06-23T18:40:35.662Z,5.33
2018-06-23T18:45:38.930Z,6.00
2018-06-23T18:50:41.963Z,5.47
2018-06-23T18:55:45.142Z,6.33
2018-06-23T19:00:48.644Z,5.47
2018-06-23T19:05:51.761Z,5.80
2018-06-23T19:10:54.801Z,6.80
2018-06-23T19:15:58.208Z,6.50
2018-06-23T19:21:01.238Z,6.60
2018-06-23T19:26:04.648Z,6.90
2018-06-23T19:31:07.985Z,7.07
2018-06-23T19:36:10.977Z,7.10
2018-06-23T19:41:23.550Z,6.93
2018-06-23T19:46:26.718Z,6.10
2018-06-23T19:51:29.865Z,6.13
2018-06-23T19:56:33.307Z,7.17
2018-06-23T20:01:36.912Z,7.30
2018-06-23T20:06:39.995Z,6.70
2018-06-23T20:11:43.247Z,7.27
2018-06-23T20:16:46.731Z,6.80
2018-06-23T20:21:49.880Z,7.10
2018-06-23T20:26:53.042Z,7.70
2018-06-23T20:31:56.321Z,6.70
2018-06-23T20:36:59.457Z,8.47
2018-06-23T20:42:02.733Z,9.10
2018-06-23T20:47:06.075Z,7.97
2018-06-23T20:52:09.394Z,8.30
2018-06-23T20:57:12.449Z,7.33
2018-06-23T21:02:15.579Z,7.10
2018-06-23T21:07:18.991Z,9.73
2018-06-23T21:12:22.316Z,8.87
2018-06-23T21:17:25.785Z,9.03
2018-06-23T21:22:28.960Z,8.37
2018-06-23T21:27:32.216Z,8.97
2018-06-23T21:32:35.519Z,9.07
2018-06-23T21:37:38.995Z,9.40
2018-06-23T21:42:42.276Z,8.27
2018-06-23T21:47:45.404Z,9.07
2018-06-23T21:52:48.936Z,9.73
2018-06-23T21:57:52.349Z,8.10
2018-06-23T22:02:55.687Z,8.80
2018-06-23T22:07:59.441Z,9.67
2018-06-23T22:13:02.976Z,9.40
2018-06-23T22:18:06.177Z,9.93
2018-06-23T22:23:09.500Z,9.50
2018-06-23T22:28:12.812Z,9.53
2018-06-23T22:33:15.899Z,9.50
2018-06-23T22:38:18.942Z,9.50
2018-06-23T22:43:22.233Z,8.70
2018-06-23T22:48:25.555Z,8.80
2018-06-23T22:53:28.641Z,9.10
2018-06-23T22:58:31.895Z,8.40
2018-06-23T23:03:35.311Z,8.73
2018-06-23T23:08:39.108Z,8.53
2018-06-23T23:13:42.499Z,8.13
2018-06-23T23:18:45.917Z,10.00
2018-06-23T23:23:49.441Z,10.17
2018-06-23T23:28:52.743Z,10.00
2018-06-23T23:33:56.271Z,10.20
2018-06-23T23:38:59.764Z,10.03
2018-06-23T23:44:03.475Z,9.40
2018-06-23T23:49:06.540Z,9.90
2018-06-23T23:54:09.806Z,9.00
2018-06-23T23:59:12.793Z,9.63
